sensor_id;sensor_type;location;lat;lon;timestamp;P1;durP1;ratioP1;P2;durP2;ratioP2
56331;SDS011;42237;53.340;6.812;2022-07-23T00:01:03;12.13;;;4.95;;
56331;SDS011;42237;53.340;6.812;2022-07-23T00:03:29;11.43;;;5.28;;
56331;SDS011;42237;53.340;6.812;2022-07-23T00:05:55;8.63;;;4.65;;
56331;SDS011;42237;53.340;6.812;2022-07-23T00:08:21;9.75;;;4.53;;
56331;SDS011;42237;53.340;6.812;2022-07-23T00:10:47;10.15;;;4.32;;
56331;SDS011;42237;53.340;6.812;2022-07-23T00:13:13;11.50;;;5.05;;
56331;SDS011;42237;53.340;6.812;2022-07-23T00:15:38;7.85;;;4.68;;
56331;SDS011;42237;53.340;6.812;2022-07-23T00:18:04;8.20;;;4.93;;
56331;SDS011;42237;53.340;6.812;2022-07-23T00:20:32;8.73;;;4.65;;
56331;SDS011;42237;53.340;6.812;2022-07-23T00:22:58;19.30;;;5.10;;
56331;SDS011;42237;53.340;6.812;2022-07-23T00:25:30;10.10;;;5.38;;
56331;SDS011;42237;53.340;6.812;2022-07-23T00:27:56;7.00;;;3.85;;
56331;SDS011;42237;53.340;6.812;2022-07-23T00:30:23;9.50;;;4.45;;
56331;SDS011;42237;53.340;6.812;2022-07-23T00:32:49;11.55;;;4.85;;
56331;SDS011;42237;53.340;6.812;2022-07-23T00:35:21;8.75;;;4.00;;
56331;SDS011;42237;53.340;6.812;2022-07-23T00:37:51;25.38;;;5.05;;
56331;SDS011;42237;53.340;6.812;2022-07-23T00:40:17;9.85;;;4.82;;
56331;SDS011;42237;53.340;6.812;2022-07-23T00:42:43;8.77;;;4.13;;
56331;SDS011;42237;53.340;6.812;2022-07-23T00:45:10;10.85;;;4.68;;
56331;SDS011;42237;53.340;6.812;2022-07-23T00:47:38;6.45;;;4.03;;
56331;SDS011;42237;53.340;6.812;2022-07-23T00:50:05;9.57;;;4.60;;
56331;SDS011;42237;53.340;6.812;2022-07-23T00:52:32;11.32;;;4.72;;
56331;SDS011;42237;53.340;6.812;2022-07-23T00:54:59;11.95;;;4.63;;
56331;SDS011;42237;53.340;6.812;2022-07-23T00:57:25;10.15;;;4.30;;
56331;SDS011;42237;53.340;6.812;2022-07-23T00:59:51;8.77;;;4.82;;
56331;SDS011;42237;53.340;6.812;2022-07-23T01:02:16;10.93;;;5.75;;
56331;SDS011;42237;53.340;6.812;2022-07-23T01:04:42;9.25;;;5.78;;
56331;SDS011;42237;53.340;6.812;2022-07-23T01:07:08;8.93;;;5.00;;
56331;SDS011;42237;53.340;6.812;2022-07-23T01:09:34;8.02;;;4.70;;
56331;SDS011;42237;53.340;6.812;2022-07-23T01:12:00;8.90;;;4.60;;
56331;SDS011;42237;53.340;6.812;2022-07-23T01:14:26;11.05;;;5.10;;
56331;SDS011;42237;53.340;6.812;2022-07-23T01:16:52;9.95;;;5.32;;
56331;SDS011;42237;53.340;6.812;2022-07-23T01:19:18;9.07;;;4.97;;
56331;SDS011;42237;53.340;6.812;2022-07-23T01:21:45;11.05;;;5.45;;
56331;SDS011;42237;53.340;6.812;2022-07-23T01:24:12;14.90;;;5.80;;
56331;SDS011;42237;53.340;6.812;2022-07-23T01:26:40;10.93;;;5.45;;
56331;SDS011;42237;53.340;6.812;2022-07-23T01:29:08;11.38;;;5.45;;
56331;SDS011;42237;53.340;6.812;2022-07-23T01:31:34;8.63;;;4.90;;
56331;SDS011;42237;53.340;6.812;2022-07-23T01:33:59;15.40;;;6.05;;
56331;SDS011;42237;53.340;6.812;2022-07-23T01:36:25;11.75;;;5.95;;
56331;SDS011;42237;53.340;6.812;2022-07-23T01:38:51;11.20;;;6.00;;
56331;SDS011;42237;53.340;6.812;2022-07-23T01:41:17;10.23;;;5.93;;
56331;SDS011;42237;53.340;6.812;2022-07-23T01:43:43;11.18;;;5.80;;
56331;SDS011;42237;53.340;6.812;2022-07-23T01:46:08;14.38;;;6.53;;
56331;SDS011;42237;53.340;6.812;2022-07-23T01:48:34;12.90;;;6.88;;
56331;SDS011;42237;53.340;6.812;2022-07-23T01:51:00;13.15;;;6.65;;
56331;SDS011;42237;53.340;6.812;2022-07-23T01:53:26;14.10;;;6.88;;
56331;SDS011;42237;53.340;6.812;2022-07-23T01:55:51;12.20;;;6.40;;
56331;SDS011;42237;53.340;6.812;2022-07-23T01:58:17;12.75;;;5.88;;
56331;SDS011;42237;53.340;6.812;2022-07-23T02:00:43;12.02;;;6.28;;
56331;SDS011;42237;53.340;6.812;2022-07-23T02:03:08;13.15;;;6.80;;
56331;SDS011;42237;53.340;6.812;2022-07-23T02:05:34;12.65;;;6.38;;
56331;SDS011;42237;53.340;6.812;2022-07-23T02:08:00;12.20;;;6.30;;
56331;SDS011;42237;53.340;6.812;2022-07-23T02:10:26;13.20;;;6.80;;
56331;SDS011;42237;53.340;6.812;2022-07-23T02:12:52;15.60;;;7.45;;
56331;SDS011;42237;53.340;6.812;2022-07-23T02:15:18;12.82;;;6.60;;
56331;SDS011;42237;53.340;6.812;2022-07-23T02:17:44;14.18;;;6.80;;
56331;SDS011;42237;53.340;6.812;2022-07-23T02:20:10;23.15;;;7.03;;
56331;SDS011;42237;53.340;6.812;2022-07-23T02:22:36;13.07;;;6.13;;
56331;SDS011;42237;53.340;6.812;2022-07-23T02:25:03;9.65;;;6.50;;
56331;SDS011;42237;53.340;6.812;2022-07-23T02:27:30;14.88;;;5.97;;
56331;SDS011;42237;53.340;6.812;2022-07-23T02:29:56;12.60;;;6.22;;
56331;SDS011;42237;53.340;6.812;2022-07-23T02:32:22;16.10;;;6.60;;
56331;SDS011;42237;53.340;6.812;2022-07-23T02:34:48;13.73;;;6.85;;
56331;SDS011;42237;53.340;6.812;2022-07-23T02:37:14;13.48;;;5.55;;
56331;SDS011;42237;53.340;6.812;2022-07-23T02:39:40;12.30;;;6.30;;
56331;SDS011;42237;53.340;6.812;2022-07-23T02:42:06;13.23;;;5.90;;
56331;SDS011;42237;53.340;6.812;2022-07-23T02:44:32;11.18;;;5.72;;
56331;SDS011;42237;53.340;6.812;2022-07-23T02:46:58;8.82;;;5.20;;
56331;SDS011;42237;53.340;6.812;2022-07-23T02:49:27;12.80;;;6.03;;
56331;SDS011;42237;53.340;6.812;2022-07-23T02:51:52;11.88;;;5.88;;
56331;SDS011;42237;53.340;6.812;2022-07-23T02:54:18;11.32;;;5.70;;
56331;SDS011;42237;53.340;6.812;2022-07-23T02:56:44;9.95;;;5.28;;
56331;SDS011;42237;53.340;6.812;2022-07-23T02:59:10;13.55;;;5.93;;
56331;SDS011;42237;53.340;6.812;2022-07-23T03:01:36;9.30;;;5.75;;
56331;SDS011;42237;53.340;6.812;2022-07-23T03:04:02;14.20;;;5.50;;
56331;SDS011;42237;53.340;6.812;2022-07-23T03:06:28;10.98;;;5.93;;
56331;SDS011;42237;53.340;6.812;2022-07-23T03:08:54;13.10;;;4.85;;
56331;SDS011;42237;53.340;6.812;2022-07-23T03:11:20;13.50;;;4.97;;
56331;SDS011;42237;53.340;6.812;2022-07-23T03:13:45;14.40;;;5.30;;
56331;SDS011;42237;53.340;6.812;2022-07-23T03:16:11;26.10;;;6.18;;
56331;SDS011;42237;53.340;6.812;2022-07-23T03:18:37;13.88;;;5.93;;
56331;SDS011;42237;53.340;6.812;2022-07-23T03:21:03;10.70;;;5.10;;
56331;SDS011;42237;53.340;6.812;2022-07-23T03:23:29;11.18;;;5.68;;
56331;SDS011;42237;53.340;6.812;2022-07-23T03:25:54;12.50;;;6.18;;
56331;SDS011;42237;53.340;6.812;2022-07-23T03:28:20;12.13;;;5.82;;
56331;SDS011;42237;53.340;6.812;2022-07-23T03:30:46;16.15;;;6.57;;
56331;SDS011;42237;53.340;6.812;2022-07-23T03:33:13;12.95;;;6.45;;
56331;SDS011;42237;53.340;6.812;2022-07-23T03:35:41;14.27;;;6.88;;
56331;SDS011;42237;53.340;6.812;2022-07-23T03:38:08;18.77;;;6.18;;
56331;SDS011;42237;53.340;6.812;2022-07-23T03:40:34;13.00;;;6.40;;
56331;SDS011;42237;53.340;6.812;2022-07-23T03:43:02;13.40;;;6.45;;
56331;SDS011;42237;53.340;6.812;2022-07-23T03:45:28;13.07;;;6.20;;
56331;SDS011;42237;53.340;6.812;2022-07-23T03:48:05;12.90;;;5.68;;
56331;SDS011;42237;53.340;6.812;2022-07-23T03:50:31;9.38;;;5.63;;
56331;SDS011;42237;53.340;6.812;2022-07-23T03:52:57;10.63;;;6.15;;
56331;SDS011;42237;53.340;6.812;2022-07-23T03:55:24;13.85;;;6.80;;
56331;SDS011;42237;53.340;6.812;2022-07-23T03:57:53;13.02;;;6.35;;
56331;SDS011;42237;53.340;6.812;2022-07-23T04:00:18;10.95;;;5.93;;
56331;SDS011;42237;53.340;6.812;2022-07-23T04:02:44;12.93;;;6.45;;
56331;SDS011;42237;53.340;6.812;2022-07-23T04:05:10;11.00;;;6.13;;
56331;SDS011;42237;53.340;6.812;2022-07-23T04:07:35;11.48;;;6.28;;
56331;SDS011;42237;53.340;6.812;2022-07-23T04:10:01;10.32;;;5.80;;
56331;SDS011;42237;53.340;6.812;2022-07-23T04:12:27;13.10;;;6.43;;
56331;SDS011;42237;53.340;6.812;2022-07-23T04:14:53;11.90;;;6.00;;
56331;SDS011;42237;53.340;6.812;2022-07-23T04:17:18;13.98;;;6.00;;
56331;SDS011;42237;53.340;6.812;2022-07-23T04:19:44;12.40;;;6.88;;
56331;SDS011;42237;53.340;6.812;2022-07-23T04:22:10;14.63;;;6.18;;
56331;SDS011;42237;53.340;6.812;2022-07-23T04:24:36;17.95;;;6.45;;
56331;SDS011;42237;53.340;6.812;2022-07-23T04:27:03;12.27;;;6.47;;
56331;SDS011;42237;53.340;6.812;2022-07-23T04:29:29;12.70;;;6.13;;
56331;SDS011;42237;53.340;6.812;2022-07-23T04:31:55;15.88;;;6.68;;
56331;SDS011;42237;53.340;6.812;2022-07-23T04:34:20;13.57;;;6.30;;
56331;SDS011;42237;53.340;6.812;2022-07-23T04:36:47;12.45;;;6.00;;
56331;SDS011;42237;53.340;6.812;2022-07-23T04:39:12;15.82;;;6.18;;
56331;SDS011;42237;53.340;6.812;2022-07-23T04:41:38;16.52;;;6.15;;
56331;SDS011;42237;53.340;6.812;2022-07-23T04:44:04;10.48;;;5.60;;
56331;SDS011;42237;53.340;6.812;2022-07-23T04:46:33;14.30;;;6.07;;
56331;SDS011;42237;53.340;6.812;2022-07-23T04:48:59;10.75;;;5.65;;
56331;SDS011;42237;53.340;6.812;2022-07-23T04:51:24;11.63;;;5.47;;
56331;SDS011;42237;53.340;6.812;2022-07-23T04:53:50;14.50;;;5.80;;
56331;SDS011;42237;53.340;6.812;2022-07-23T04:56:18;11.63;;;5.63;;
56331;SDS011;42237;53.340;6.812;2022-07-23T04:58:44;12.27;;;6.00;;
56331;SDS011;42237;53.340;6.812;2022-07-23T05:01:10;10.85;;;5.85;;
56331;SDS011;42237;53.340;6.812;2022-07-23T05:03:38;12.15;;;5.97;;
56331;SDS011;42237;53.340;6.812;2022-07-23T05:06:04;7.63;;;4.65;;
56331;SDS011;42237;53.340;6.812;2022-07-23T05:08:30;8.02;;;4.95;;
56331;SDS011;42237;53.340;6.812;2022-07-23T05:10:55;10.90;;;4.32;;
56331;SDS011;42237;53.340;6.812;2022-07-23T05:13:24;7.07;;;4.20;;
56331;SDS011;42237;53.340;6.812;2022-07-23T05:15:50;7.85;;;4.50;;
56331;SDS011;42237;53.340;6.812;2022-07-23T05:18:21;8.38;;;4.65;;
56331;SDS011;42237;53.340;6.812;2022-07-23T05:20:46;7.60;;;4.65;;
56331;SDS011;42237;53.340;6.812;2022-07-23T05:23:12;9.60;;;5.03;;
56331;SDS011;42237;53.340;6.812;2022-07-23T05:25:38;12.60;;;5.50;;
56331;SDS011;42237;53.340;6.812;2022-07-23T05:28:05;9.75;;;5.25;;
56331;SDS011;42237;53.340;6.812;2022-07-23T05:30:31;12.77;;;4.97;;
56331;SDS011;42237;53.340;6.812;2022-07-23T05:32:56;14.10;;;5.65;;
56331;SDS011;42237;53.340;6.812;2022-07-23T05:35:22;9.93;;;5.20;;
56331;SDS011;42237;53.340;6.812;2022-07-23T05:37:48;9.95;;;4.95;;
56331;SDS011;42237;53.340;6.812;2022-07-23T05:40:14;8.98;;;4.82;;
56331;SDS011;42237;53.340;6.812;2022-07-23T05:42:40;10.90;;;6.30;;
56331;SDS011;42237;53.340;6.812;2022-07-23T05:45:07;12.45;;;5.05;;
56331;SDS011;42237;53.340;6.812;2022-07-23T05:47:43;9.32;;;5.00;;
56331;SDS011;42237;53.340;6.812;2022-07-23T05:50:11;11.13;;;4.93;;
56331;SDS011;42237;53.340;6.812;2022-07-23T05:52:38;9.20;;;4.38;;
56331;SDS011;42237;53.340;6.812;2022-07-23T05:55:04;8.07;;;4.78;;
56331;SDS011;42237;53.340;6.812;2022-07-23T05:57:31;8.70;;;4.55;;
56331;SDS011;42237;53.340;6.812;2022-07-23T05:59:56;7.30;;;4.50;;
56331;SDS011;42237;53.340;6.812;2022-07-23T06:02:22;7.75;;;4.43;;
56331;SDS011;42237;53.340;6.812;2022-07-23T06:04:48;8.38;;;4.90;;
56331;SDS011;42237;53.340;6.812;2022-07-23T06:07:14;9.52;;;4.25;;
56331;SDS011;42237;53.340;6.812;2022-07-23T06:09:40;9.38;;;4.35;;
56331;SDS011;42237;53.340;6.812;2022-07-23T06:12:05;8.68;;;3.60;;
56331;SDS011;42237;53.340;6.812;2022-07-23T06:14:31;7.50;;;3.30;;
56331;SDS011;42237;53.340;6.812;2022-07-23T06:16:57;9.23;;;3.20;;
56331;SDS011;42237;53.340;6.812;2022-07-23T06:19:24;7.30;;;3.20;;
56331;SDS011;42237;53.340;6.812;2022-07-23T06:21:50;6.15;;;3.15;;
56331;SDS011;42237;53.340;6.812;2022-07-23T06:24:16;5.63;;;3.30;;
56331;SDS011;42237;53.340;6.812;2022-07-23T06:26:42;8.40;;;3.88;;
56331;SDS011;42237;53.340;6.812;2022-07-23T06:29:07;7.65;;;3.42;;
56331;SDS011;42237;53.340;6.812;2022-07-23T06:31:33;5.32;;;2.92;;
56331;SDS011;42237;53.340;6.812;2022-07-23T06:33:59;4.45;;;2.55;;
56331;SDS011;42237;53.340;6.812;2022-07-23T06:36:24;3.67;;;2.28;;
56331;SDS011;42237;53.340;6.812;2022-07-23T06:38:50;6.78;;;2.55;;
56331;SDS011;42237;53.340;6.812;2022-07-23T06:41:16;4.38;;;2.17;;
56331;SDS011;42237;53.340;6.812;2022-07-23T06:43:41;4.07;;;2.42;;
56331;SDS011;42237;53.340;6.812;2022-07-23T06:46:07;5.10;;;2.53;;
56331;SDS011;42237;53.340;6.812;2022-07-23T06:48:33;11.68;;;2.75;;
56331;SDS011;42237;53.340;6.812;2022-07-23T06:51:01;5.15;;;2.30;;
56331;SDS011;42237;53.340;6.812;2022-07-23T06:53:27;3.63;;;1.80;;
56331;SDS011;42237;53.340;6.812;2022-07-23T06:55:53;3.65;;;2.17;;
56331;SDS011;42237;53.340;6.812;2022-07-23T06:58:19;4.57;;;2.30;;
56331;SDS011;42237;53.340;6.812;2022-07-23T07:00:45;3.45;;;2.00;;
56331;SDS011;42237;53.340;6.812;2022-07-23T07:03:11;4.93;;;1.73;;
56331;SDS011;42237;53.340;6.812;2022-07-23T07:05:37;3.42;;;1.40;;
56331;SDS011;42237;53.340;6.812;2022-07-23T07:08:04;3.17;;;1.65;;
56331;SDS011;42237;53.340;6.812;2022-07-23T07:10:30;4.03;;;1.95;;
56331;SDS011;42237;53.340;6.812;2022-07-23T07:12:56;4.60;;;2.10;;
56331;SDS011;42237;53.340;6.812;2022-07-23T07:15:22;6.78;;;2.38;;
56331;SDS011;42237;53.340;6.812;2022-07-23T07:17:47;7.03;;;2.72;;
56331;SDS011;42237;53.340;6.812;2022-07-23T07:20:13;4.78;;;2.38;;
56331;SDS011;42237;53.340;6.812;2022-07-23T07:22:39;6.90;;;2.38;;
56331;SDS011;42237;53.340;6.812;2022-07-23T07:25:05;7.38;;;2.25;;
56331;SDS011;42237;53.340;6.812;2022-07-23T07:27:31;7.75;;;3.10;;
56331;SDS011;42237;53.340;6.812;2022-07-23T07:29:57;5.65;;;1.70;;
56331;SDS011;42237;53.340;6.812;2022-07-23T07:32:23;8.13;;;2.13;;
56331;SDS011;42237;53.340;6.812;2022-07-23T07:34:48;4.20;;;1.40;;
56331;SDS011;42237;53.340;6.812;2022-07-23T07:37:14;3.15;;;1.05;;
56331;SDS011;42237;53.340;6.812;2022-07-23T07:39:40;2.28;;;0.93;;
56331;SDS011;42237;53.340;6.812;2022-07-23T07:42:05;3.05;;;0.90;;
56331;SDS011;42237;53.340;6.812;2022-07-23T07:44:31;3.10;;;0.90;;
56331;SDS011;42237;53.340;6.812;2022-07-23T07:46:57;4.70;;;0.90;;
56331;SDS011;42237;53.340;6.812;2022-07-23T07:49:22;3.80;;;1.00;;
56331;SDS011;42237;53.340;6.812;2022-07-23T07:51:49;1.38;;;0.90;;
56331;SDS011;42237;53.340;6.812;2022-07-23T07:54:14;1.83;;;0.77;;
56331;SDS011;42237;53.340;6.812;2022-07-23T07:56:40;6.80;;;0.98;;
56331;SDS011;42237;53.340;6.812;2022-07-23T07:59:06;2.53;;;0.80;;
56331;SDS011;42237;53.340;6.812;2022-07-23T08:01:32;3.83;;;0.88;;
56331;SDS011;42237;53.340;6.812;2022-07-23T08:03:58;2.47;;;0.80;;
56331;SDS011;42237;53.340;6.812;2022-07-23T08:06:23;1.25;;;0.52;;
56331;SDS011;42237;53.340;6.812;2022-07-23T08:08:49;4.40;;;1.10;;
56331;SDS011;42237;53.340;6.812;2022-07-23T08:11:15;2.92;;;0.70;;
56331;SDS011;42237;53.340;6.812;2022-07-23T08:13:41;1.60;;;0.80;;
56331;SDS011;42237;53.340;6.812;2022-07-23T08:16:09;1.85;;;0.93;;
56331;SDS011;42237;53.340;6.812;2022-07-23T08:18:35;2.45;;;0.82;;
56331;SDS011;42237;53.340;6.812;2022-07-23T08:21:00;4.90;;;0.90;;
56331;SDS011;42237;53.340;6.812;2022-07-23T08:23:26;2.20;;;0.80;;
56331;SDS011;42237;53.340;6.812;2022-07-23T08:25:52;3.17;;;0.88;;
56331;SDS011;42237;53.340;6.812;2022-07-23T08:28:18;3.28;;;0.80;;
56331;SDS011;42237;53.340;6.812;2022-07-23T08:30:44;6.80;;;0.90;;
56331;SDS011;42237;53.340;6.812;2022-07-23T08:33:13;2.03;;;0.68;;
56331;SDS011;42237;53.340;6.812;2022-07-23T08:35:42;1.98;;;0.70;;
56331;SDS011;42237;53.340;6.812;2022-07-23T08:38:12;4.03;;;0.90;;
56331;SDS011;42237;53.340;6.812;2022-07-23T08:40:40;1.50;;;0.95;;
56331;SDS011;42237;53.340;6.812;2022-07-23T08:43:09;1.60;;;0.70;;
56331;SDS011;42237;53.340;6.812;2022-07-23T08:45:37;2.47;;;0.90;;
56331;SDS011;42237;53.340;6.812;2022-07-23T08:48:13;1.52;;;0.80;;
56331;SDS011;42237;53.340;6.812;2022-07-23T08:50:48;3.15;;;0.80;;
56331;SDS011;42237;53.340;6.812;2022-07-23T08:53:16;2.15;;;0.98;;
56331;SDS011;42237;53.340;6.812;2022-07-23T08:55:43;3.05;;;0.70;;
56331;SDS011;42237;53.340;6.812;2022-07-23T08:58:10;2.22;;;0.82;;
56331;SDS011;42237;53.340;6.812;2022-07-23T09:00:36;3.25;;;0.90;;
56331;SDS011;42237;53.340;6.812;2022-07-23T09:03:02;2.88;;;0.50;;
56331;SDS011;42237;53.340;6.812;2022-07-23T09:05:28;3.53;;;0.77;;
56331;SDS011;42237;53.340;6.812;2022-07-23T09:08:10;1.10;;;0.60;;
56331;SDS011;42237;53.340;6.812;2022-07-23T09:10:49;1.58;;;0.88;;
56331;SDS011;42237;53.340;6.812;2022-07-23T09:13:25;2.05;;;0.80;;
56331;SDS011;42237;53.340;6.812;2022-07-23T09:15:52;1.00;;;0.70;;
56331;SDS011;42237;53.340;6.812;2022-07-23T09:18:18;3.35;;;0.85;;
56331;SDS011;42237;53.340;6.812;2022-07-23T09:20:45;2.03;;;0.75;;
56331;SDS011;42237;53.340;6.812;2022-07-23T09:23:11;2.22;;;0.85;;
56331;SDS011;42237;53.340;6.812;2022-07-23T09:25:37;3.53;;;0.80;;
56331;SDS011;42237;53.340;6.812;2022-07-23T09:28:02;1.45;;;0.88;;
56331;SDS011;42237;53.340;6.812;2022-07-23T09:30:29;2.55;;;0.93;;
56331;SDS011;42237;53.340;6.812;2022-07-23T09:33:06;2.05;;;0.65;;
56331;SDS011;42237;53.340;6.812;2022-07-23T09:38:15;0.85;;;0.70;;
56331;SDS011;42237;53.340;6.812;2022-07-23T09:40:42;2.10;;;1.05;;
56331;SDS011;42237;53.340;6.812;2022-07-23T09:43:09;3.50;;;0.77;;
56331;SDS011;42237;53.340;6.812;2022-07-23T09:45:34;3.17;;;0.85;;
56331;SDS011;42237;53.340;6.812;2022-07-23T09:48:13;2.65;;;1.00;;
56331;SDS011;42237;53.340;6.812;2022-07-23T09:50:42;2.88;;;1.05;;
56331;SDS011;42237;53.340;6.812;2022-07-23T09:53:09;5.55;;;1.30;;
56331;SDS011;42237;53.340;6.812;2022-07-23T09:55:48;5.97;;;0.90;;
56331;SDS011;42237;53.340;6.812;2022-07-23T09:58:14;2.65;;;0.80;;
56331;SDS011;42237;53.340;6.812;2022-07-23T10:00:43;4.68;;;1.38;;
56331;SDS011;42237;53.340;6.812;2022-07-23T10:03:10;3.05;;;0.82;;
56331;SDS011;42237;53.340;6.812;2022-07-23T10:05:38;1.05;;;0.80;;
56331;SDS011;42237;53.340;6.812;2022-07-23T10:08:05;2.03;;;0.73;;
56331;SDS011;42237;53.340;6.812;2022-07-23T10:10:35;1.13;;;0.70;;
56331;SDS011;42237;53.340;6.812;2022-07-23T10:13:03;2.42;;;0.80;;
56331;SDS011;42237;53.340;6.812;2022-07-23T10:15:48;1.80;;;0.98;;
56331;SDS011;42237;53.340;6.812;2022-07-23T10:18:15;3.53;;;1.20;;
56331;SDS011;42237;53.340;6.812;2022-07-23T10:20:41;3.25;;;0.80;;
56331;SDS011;42237;53.340;6.812;2022-07-23T10:26:09;2.10;;;0.90;;
56331;SDS011;42237;53.340;6.812;2022-07-23T10:28:47;2.95;;;0.95;;
56331;SDS011;42237;53.340;6.812;2022-07-23T10:36:57;2.03;;;0.80;;
56331;SDS011;42237;53.340;6.812;2022-07-23T10:39:30;2.53;;;0.88;;
56331;SDS011;42237;53.340;6.812;2022-07-23T10:42:19;5.53;;;0.80;;
56331;SDS011;42237;53.340;6.812;2022-07-23T10:44:45;5.72;;;1.00;;
56331;SDS011;42237;53.340;6.812;2022-07-23T10:47:12;1.77;;;0.98;;
56331;SDS011;42237;53.340;6.812;2022-07-23T10:50:17;2.22;;;1.15;;
56331;SDS011;42237;53.340;6.812;2022-07-23T10:57:59;2.47;;;0.80;;
56331;SDS011;42237;53.340;6.812;2022-07-23T11:00:26;2.70;;;1.02;;
56331;SDS011;42237;53.340;6.812;2022-07-23T11:02:57;2.45;;;0.82;;
56331;SDS011;42237;53.340;6.812;2022-07-23T11:05:25;1.80;;;0.95;;
56331;SDS011;42237;53.340;6.812;2022-07-23T11:10:33;8.57;;;1.00;;
56331;SDS011;42237;53.340;6.812;2022-07-23T11:32:02;3.30;;;1.10;;
56331;SDS011;42237;53.340;6.812;2022-07-23T11:34:32;3.20;;;1.02;;
56331;SDS011;42237;53.340;6.812;2022-07-23T11:36:58;4.40;;;1.48;;
56331;SDS011;42237;53.340;6.812;2022-07-23T11:39:26;2.42;;;1.00;;
56331;SDS011;42237;53.340;6.812;2022-07-23T11:41:53;2.65;;;1.10;;
56331;SDS011;42237;53.340;6.812;2022-07-23T11:44:28;3.47;;;1.13;;
56331;SDS011;42237;53.340;6.812;2022-07-23T11:46:58;3.78;;;1.40;;
56331;SDS011;42237;53.340;6.812;2022-07-23T11:49:25;2.80;;;1.38;;
56331;SDS011;42237;53.340;6.812;2022-07-23T11:52:11;5.60;;;1.58;;
56331;SDS011;42237;53.340;6.812;2022-07-23T11:54:49;6.25;;;1.25;;
56331;SDS011;42237;53.340;6.812;2022-07-23T11:57:35;2.15;;;1.27;;
56331;SDS011;42237;53.340;6.812;2022-07-23T12:00:07;5.18;;;1.20;;
56331;SDS011;42237;53.340;6.812;2022-07-23T12:02:45;4.00;;;1.25;;
56331;SDS011;42237;53.340;6.812;2022-07-23T12:05:19;2.58;;;1.02;;
56331;SDS011;42237;53.340;6.812;2022-07-23T12:07:46;2.78;;;1.30;;
56331;SDS011;42237;53.340;6.812;2022-07-23T12:15:11;2.20;;;1.30;;
56331;SDS011;42237;53.340;6.812;2022-07-23T12:17:41;4.15;;;1.20;;
56331;SDS011;42237;53.340;6.812;2022-07-23T12:20:09;3.72;;;1.42;;
56331;SDS011;42237;53.340;6.812;2022-07-23T12:22:39;2.80;;;1.20;;
56331;SDS011;42237;53.340;6.812;2022-07-23T12:27:35;4.47;;;1.38;;
56331;SDS011;42237;53.340;6.812;2022-07-23T12:30:21;2.33;;;1.20;;
56331;SDS011;42237;53.340;6.812;2022-07-23T12:32:55;3.22;;;1.55;;
56331;SDS011;42237;53.340;6.812;2022-07-23T12:35:22;2.50;;;1.25;;
56331;SDS011;42237;53.340;6.812;2022-07-23T12:37:59;3.08;;;1.30;;
56331;SDS011;42237;53.340;6.812;2022-07-23T12:42:58;3.05;;;1.35;;
56331;SDS011;42237;53.340;6.812;2022-07-23T12:45:41;6.30;;;1.63;;
56331;SDS011;42237;53.340;6.812;2022-07-23T12:48:08;5.22;;;1.60;;
56331;SDS011;42237;53.340;6.812;2022-07-23T12:50:48;3.17;;;1.25;;
56331;SDS011;42237;53.340;6.812;2022-07-23T12:53:30;3.13;;;1.50;;
56331;SDS011;42237;53.340;6.812;2022-07-23T12:55:58;5.05;;;1.40;;
56331;SDS011;42237;53.340;6.812;2022-07-23T12:58:24;4.05;;;1.38;;
56331;SDS011;42237;53.340;6.812;2022-07-23T13:05:52;3.33;;;1.52;;
56331;SDS011;42237;53.340;6.812;2022-07-23T13:08:19;5.63;;;1.65;;
56331;SDS011;42237;53.340;6.812;2022-07-23T13:10:45;4.53;;;1.30;;
56331;SDS011;42237;53.340;6.812;2022-07-23T13:13:13;3.30;;;1.27;;
56331;SDS011;42237;53.340;6.812;2022-07-23T13:15:40;3.63;;;1.27;;
56331;SDS011;42237;53.340;6.812;2022-07-23T13:18:06;1.98;;;1.50;;
56331;SDS011;42237;53.340;6.812;2022-07-23T13:20:32;4.25;;;1.67;;
56331;SDS011;42237;53.340;6.812;2022-07-23T13:22:59;3.85;;;1.70;;
56331;SDS011;42237;53.340;6.812;2022-07-23T13:25:28;4.72;;;1.33;;
56331;SDS011;42237;53.340;6.812;2022-07-23T13:27:54;2.35;;;1.45;;
56331;SDS011;42237;53.340;6.812;2022-07-23T13:30:19;5.63;;;1.90;;
56331;SDS011;42237;53.340;6.812;2022-07-23T13:32:45;3.15;;;1.30;;
56331;SDS011;42237;53.340;6.812;2022-07-23T13:35:12;6.40;;;1.73;;
56331;SDS011;42237;53.340;6.812;2022-07-23T13:37:38;7.22;;;1.38;;
56331;SDS011;42237;53.340;6.812;2022-07-23T13:40:04;5.38;;;1.40;;
56331;SDS011;42237;53.340;6.812;2022-07-23T13:42:33;6.70;;;1.50;;
56331;SDS011;42237;53.340;6.812;2022-07-23T13:44:59;3.28;;;1.70;;
56331;SDS011;42237;53.340;6.812;2022-07-23T13:47:25;3.55;;;1.30;;
56331;SDS011;42237;53.340;6.812;2022-07-23T13:49:50;4.65;;;1.40;;
56331;SDS011;42237;53.340;6.812;2022-07-23T13:52:16;3.90;;;1.40;;
56331;SDS011;42237;53.340;6.812;2022-07-23T13:54:42;3.05;;;1.48;;
56331;SDS011;42237;53.340;6.812;2022-07-23T13:57:07;1.95;;;1.30;;
56331;SDS011;42237;53.340;6.812;2022-07-23T13:59:34;2.42;;;1.30;;
56331;SDS011;42237;53.340;6.812;2022-07-23T14:02:01;3.20;;;1.40;;
56331;SDS011;42237;53.340;6.812;2022-07-23T14:04:28;2.67;;;1.60;;
56331;SDS011;42237;53.340;6.812;2022-07-23T14:06:54;5.38;;;1.60;;
56331;SDS011;42237;53.340;6.812;2022-07-23T14:09:20;3.00;;;1.48;;
56331;SDS011;42237;53.340;6.812;2022-07-23T14:11:47;4.10;;;1.40;;
56331;SDS011;42237;53.340;6.812;2022-07-23T14:14:12;5.53;;;1.45;;
56331;SDS011;42237;53.340;6.812;2022-07-23T14:16:38;7.07;;;1.73;;
56331;SDS011;42237;53.340;6.812;2022-07-23T14:19:04;2.67;;;1.15;;
56331;SDS011;42237;53.340;6.812;2022-07-23T14:21:30;2.83;;;1.20;;
56331;SDS011;42237;53.340;6.812;2022-07-23T14:23:55;3.13;;;1.40;;
56331;SDS011;42237;53.340;6.812;2022-07-23T14:26:21;2.13;;;1.23;;
56331;SDS011;42237;53.340;6.812;2022-07-23T14:28:47;3.58;;;1.50;;
56331;SDS011;42237;53.340;6.812;2022-07-23T14:31:13;3.10;;;1.33;;
56331;SDS011;42237;53.340;6.812;2022-07-23T14:33:39;3.05;;;1.70;;
56331;SDS011;42237;53.340;6.812;2022-07-23T14:36:04;3.83;;;1.42;;
56331;SDS011;42237;53.340;6.812;2022-07-23T14:38:30;2.97;;;1.15;;
56331;SDS011;42237;53.340;6.812;2022-07-23T14:40:56;2.33;;;1.40;;
56331;SDS011;42237;53.340;6.812;2022-07-23T14:43:23;2.60;;;1.15;;
56331;SDS011;42237;53.340;6.812;2022-07-23T14:45:49;3.83;;;1.73;;
56331;SDS011;42237;53.340;6.812;2022-07-23T14:48:15;3.30;;;1.80;;
56331;SDS011;42237;53.340;6.812;2022-07-23T14:50:41;2.72;;;1.20;;
56331;SDS011;42237;53.340;6.812;2022-07-23T14:53:06;1.98;;;1.30;;
56331;SDS011;42237;53.340;6.812;2022-07-23T14:55:32;3.55;;;1.40;;
56331;SDS011;42237;53.340;6.812;2022-07-23T14:57:58;3.97;;;1.33;;
56331;SDS011;42237;53.340;6.812;2022-07-23T15:00:24;4.38;;;1.33;;
56331;SDS011;42237;53.340;6.812;2022-07-23T15:02:50;4.60;;;1.38;;
56331;SDS011;42237;53.340;6.812;2022-07-23T15:05:18;5.03;;;1.40;;
56331;SDS011;42237;53.340;6.812;2022-07-23T15:07:44;4.38;;;1.45;;
56331;SDS011;42237;53.340;6.812;2022-07-23T15:10:10;2.85;;;1.50;;
56331;SDS011;42237;53.340;6.812;2022-07-23T15:12:36;2.38;;;1.30;;
56331;SDS011;42237;53.340;6.812;2022-07-23T15:15:02;3.47;;;1.42;;
56331;SDS011;42237;53.340;6.812;2022-07-23T15:17:29;2.10;;;1.08;;
56331;SDS011;42237;53.340;6.812;2022-07-23T15:19:54;2.83;;;1.60;;
56331;SDS011;42237;53.340;6.812;2022-07-23T15:22:20;4.28;;;2.15;;
56331;SDS011;42237;53.340;6.812;2022-07-23T15:24:46;2.55;;;1.23;;
56331;SDS011;42237;53.340;6.812;2022-07-23T15:27:12;3.38;;;1.35;;
56331;SDS011;42237;53.340;6.812;2022-07-23T15:29:37;6.70;;;1.80;;
56331;SDS011;42237;53.340;6.812;2022-07-23T15:32:03;3.08;;;1.20;;
56331;SDS011;42237;53.340;6.812;2022-07-23T15:34:29;5.53;;;1.42;;
56331;SDS011;42237;53.340;6.812;2022-07-23T15:36:56;4.13;;;1.23;;